Jacky L O'neal — WDG3892 — position and weather

sailwx.info

Track history (hours):
 
Tides and Currents Weather Stations Pressure Air Temp Water Temp Dewpoint Dewpoint Depression Visibility Wind Speed Wind Dir Waves Ship Positions

Jacky L O'neal

Owner: American Commercial Lines LLC, Jeffersonville, IN. More information available from US FCC via Universal Licensing System and Coast Guard Vessel Documentation Center.

Last reported at 2017-Feb-17 06:11 UTC. Time now 2017-Feb-25 18:56 UTC.
Position N 32°44' W 091°05'.
Warning: this ship's position is 8 days out of date.

Length 55 m; draft 2.9 m.

Type: Tow > 200 m length. MMSI: 367530760.

Date/timePositionNaut miles runAvg speedWind from/ knotsBaromVisibWave heightAir tempDewpointWater temp
2017-Feb-17 06:11N 32°44' W 091°05'3 3.1
2017-Feb-17 05:14N 32°41' W 091°04'1 2.1
2017-Feb-17 04:32N 32°41' W 091°06'5 3.6
2017-Feb-17 03:14N 32°37' W 091°09'3 3.7
2017-Feb-17 02:33N 32°35' W 091°07'4 3.8
2017-Feb-17 01:33N 32°31' W 091°06'4 4.2
2017-Feb-17 00:33N 32°27' W 091°05'4 4.4
2017-Feb-16 23:33N 32°25' W 091°00'2 2.5
2017-Feb-16 22:33N 32°23' W 090°60'2 2.4
2017-Feb-16 21:33N 32°21' W 090°58'1 1.4
2017-Feb-16 20:33N 32°21' W 090°56'3 2.8
2017-Feb-16 19:33N 32°18' W 090°55'1 1.1
2017-Feb-16 18:33N 32°18' W 090°56'4 3.7
2017-Feb-16 17:33N 32°15' W 090°59'4 4.0
2017-Feb-16 16:33N 32°11' W 090°60'4 4.0
2017-Feb-16 15:33N 32°07' W 091°02'4 4.2
2017-Feb-16 14:33N 32°08' W 091°07'3 3.0
2017-Feb-16 13:31N 32°05' W 091°04'2 2.1
2017-Feb-16 12:33N 32°03' W 091°03'8 4.0
2017-Feb-16 10:33N 31°58' W 091°11'12 3.8
2017-Feb-16 07:30N 31°50' W 091°21'  
2017-Feb-12 06:15N 31°51' W 091°18'8 7.7
2017-Feb-12 05:15N 31°57' W 091°11'5 7.4
2017-Feb-12 04:33N 31°59' W 091°06'7 7.1
2017-Feb-12 03:33N 32°06' W 091°06'4 4.0
2017-Feb-12 02:33N 32°07' W 091°02'8 8.4
2017-Feb-12 01:33N 32°15' W 090°59'6 5.9
2017-Feb-12 00:33N 32°21' W 090°56'6 6.5
2017-Feb-11 23:33N 32°26' W 091°01'8 6.9
2017-Feb-11 22:24N 32°33' W 091°06'12 4.9
2017-Feb-11 20:04N 32°44' W 091°08'  
Track history (hours):
 
Tides and Currents Weather Stations Pressure Air Temp Water Temp Dewpoint Dewpoint Depression Visibility Wind Speed Wind Dir Waves Ship Positions

Jacky L O'neal

Owner: American Commercial Lines LLC, Jeffersonville, IN. More information available from US FCC via Universal Licensing System and Coast Guard Vessel Documentation Center.

Last reported at 2017-Feb-17 06:11 UTC. Time now 2017-Feb-25 18:56 UTC.
Position N 32°44' W 091°05'.
Warning: this ship's position is 8 days out of date.

Length 55 m; draft 2.9 m.

Type: Tow > 200 m length. MMSI: 367530760.

Date/timePositionNaut miles runAvg speedWind from/ knotsBaromVisibWave heightAir tempDewpointWater temp
2017-Feb-17 06:11N 32°44' W 091°05'3 3.1
2017-Feb-17 05:14N 32°41' W 091°04'1 2.1
2017-Feb-17 04:32N 32°41' W 091°06'5 3.6
2017-Feb-17 03:14N 32°37' W 091°09'3 3.7
2017-Feb-17 02:33N 32°35' W 091°07'4 3.8
2017-Feb-17 01:33N 32°31' W 091°06'4 4.2
2017-Feb-17 00:33N 32°27' W 091°05'4 4.4
2017-Feb-16 23:33N 32°25' W 091°00'2 2.5
2017-Feb-16 22:33N 32°23' W 090°60'2 2.4
2017-Feb-16 21:33N 32°21' W 090°58'1 1.4
2017-Feb-16 20:33N 32°21' W 090°56'3 2.8
2017-Feb-16 19:33N 32°18' W 090°55'1 1.1
2017-Feb-16 18:33N 32°18' W 090°56'4 3.7
2017-Feb-16 17:33N 32°15' W 090°59'4 4.0
2017-Feb-16 16:33N 32°11' W 090°60'4 4.0
2017-Feb-16 15:33N 32°07' W 091°02'4 4.2
2017-Feb-16 14:33N 32°08' W 091°07'3 3.0
2017-Feb-16 13:31N 32°05' W 091°04'2 2.1
2017-Feb-16 12:33N 32°03' W 091°03'8 4.0
2017-Feb-16 10:33N 31°58' W 091°11'12 3.8
2017-Feb-16 07:30N 31°50' W 091°21'  
2017-Feb-12 06:15N 31°51' W 091°18'8 7.7
2017-Feb-12 05:15N 31°57' W 091°11'5 7.4
2017-Feb-12 04:33N 31°59' W 091°06'7 7.1
2017-Feb-12 03:33N 32°06' W 091°06'4 4.0
2017-Feb-12 02:33N 32°07' W 091°02'8 8.4
2017-Feb-12 01:33N 32°15' W 090°59'6 5.9
2017-Feb-12 00:33N 32°21' W 090°56'6 6.5
2017-Feb-11 23:33N 32°26' W 091°01'8 6.9
2017-Feb-11 22:24N 32°33' W 091°06'12 4.9
2017-Feb-11 20:04N 32°44' W 091°08'  

Dump ship's entire track history